createdAt,value
2022-07-29T00:00:00.678Z,21.64
2022-07-29T00:02:28.195Z,21.52
2022-07-29T00:04:54.960Z,21.48
2022-07-29T00:07:21.647Z,21.50
2022-07-29T00:09:51.676Z,21.47
2022-07-29T00:12:26.420Z,21.49
2022-07-29T00:14:57.960Z,21.49
2022-07-29T00:17:25.506Z,21.55
2022-07-29T00:19:52.349Z,21.47
2022-07-29T00:22:19.213Z,21.43
2022-07-29T00:24:45.859Z,21.43
2022-07-29T00:27:12.661Z,21.47
2022-07-29T00:29:39.404Z,21.41
2022-07-29T00:32:06.403Z,21.42
2022-07-29T00:34:51.831Z,21.42
2022-07-29T00:37:18.491Z,21.34
2022-07-29T00:39:45.269Z,21.27
2022-07-29T00:42:12.056Z,21.27
2022-07-29T00:44:42.656Z,21.28
2022-07-29T00:47:10.849Z,21.31
2022-07-29T00:49:38.485Z,21.37
2022-07-29T00:52:06.215Z,21.33
2022-07-29T00:54:34.196Z,21.30
2022-07-29T00:57:01.568Z,21.31
2022-07-29T00:59:35.133Z,21.29
2022-07-29T01:02:03.596Z,21.34
2022-07-29T01:04:30.953Z,21.18
2022-07-29T01:06:57.799Z,21.04
2022-07-29T01:09:35.001Z,21.12
2022-07-29T01:12:11.859Z,21.12
2022-07-29T01:14:38.949Z,21.13
2022-07-29T01:17:17.103Z,21.09
2022-07-29T01:19:50.518Z,21.14
2022-07-29T01:22:30.282Z,21.19
2022-07-29T01:25:55.926Z,21.16
2022-07-29T01:28:46.199Z,21.11
2022-07-29T01:31:22.107Z,21.07
2022-07-29T01:33:58.305Z,21.09
2022-07-29T01:36:31.567Z,21.01
2022-07-29T01:39:13.670Z,21.09
2022-07-29T01:41:49.514Z,21.02
2022-07-29T01:44:21.511Z,21.04
2022-07-29T01:46:55.721Z,20.96
2022-07-29T01:49:29.782Z,21.00
2022-07-29T01:52:03.610Z,21.01
2022-07-29T01:54:35.823Z,20.99
2022-07-29T01:57:03.367Z,20.98
2022-07-29T01:59:30.779Z,20.98
2022-07-29T02:01:59.817Z,20.92
2022-07-29T02:04:29.711Z,20.94
2022-07-29T02:07:00.321Z,20.90
2022-07-29T02:09:27.902Z,20.91
2022-07-29T02:11:56.397Z,20.94
2022-07-29T02:14:24.423Z,20.92
2022-07-29T02:16:54.846Z,20.92
2022-07-29T02:19:23.484Z,20.90
2022-07-29T02:21:52.833Z,20.88
2022-07-29T02:24:20.027Z,20.85
2022-07-29T02:26:47.206Z,20.84
2022-07-29T02:29:15.233Z,20.65
2022-07-29T02:31:44.587Z,20.50
2022-07-29T02:34:12.010Z,20.40
2022-07-29T02:36:39.126Z,20.47
2022-07-29T02:39:06.131Z,20.50
2022-07-29T02:41:42.440Z,20.47
2022-07-29T02:44:15.779Z,20.45
2022-07-29T02:47:02.531Z,20.34
2022-07-29T02:49:36.636Z,20.22
2022-07-29T02:52:05.833Z,20.17
2022-07-29T02:54:36.179Z,19.98
2022-07-29T02:57:07.538Z,19.94
2022-07-29T02:59:35.688Z,19.97
2022-07-29T03:02:03.518Z,19.88
2022-07-29T03:04:32.239Z,19.84
2022-07-29T03:07:00.603Z,19.81
2022-07-29T03:09:28.180Z,19.85
2022-07-29T03:11:56.150Z,19.75
2022-07-29T03:14:24.060Z,19.68
2022-07-29T03:16:51.695Z,19.57
2022-07-29T03:19:19.535Z,19.50
2022-07-29T03:21:46.442Z,19.50
2022-07-29T03:24:26.519Z,19.56
2022-07-29T03:26:53.325Z,19.52
2022-07-29T03:29:20.000Z,19.56
2022-07-29T03:31:46.845Z,19.57
2022-07-29T03:34:15.383Z,19.46
2022-07-29T03:36:42.339Z,19.26
2022-07-29T03:39:10.478Z,19.25
2022-07-29T03:41:38.526Z,19.14
2022-07-29T03:44:07.160Z,19.18
2022-07-29T03:46:35.596Z,19.28
2022-07-29T03:49:04.589Z,19.35
2022-07-29T03:51:33.770Z,19.26
2022-07-29T03:54:09.289Z,19.30
2022-07-29T03:56:43.985Z,19.24
2022-07-29T03:59:11.818Z,19.20
2022-07-29T04:01:39.010Z,19.12
2022-07-29T04:04:06.202Z,19.08
2022-07-29T04:06:43.040Z,18.88
2022-07-29T04:09:10.108Z,18.89
2022-07-29T04:11:56.966Z,18.69
2022-07-29T04:14:27.695Z,18.60
2022-07-29T04:16:54.384Z,18.61
2022-07-29T04:19:21.067Z,18.72
2022-07-29T04:21:47.833Z,18.58
2022-07-29T04:24:14.880Z,18.60
2022-07-29T04:26:41.832Z,18.57
2022-07-29T04:29:08.557Z,18.68
2022-07-29T04:31:35.362Z,18.74
2022-07-29T04:34:02.064Z,18.66
2022-07-29T04:36:29.945Z,18.60
2022-07-29T04:38:57.104Z,18.69
2022-07-29T04:41:23.802Z,18.67
2022-07-29T04:44:02.027Z,18.71
2022-07-29T04:46:28.919Z,18.85
2022-07-29T04:48:55.738Z,18.85
2022-07-29T04:51:22.456Z,18.91
2022-07-29T04:53:49.131Z,18.89
2022-07-29T04:56:15.829Z,18.85
2022-07-29T04:58:42.493Z,18.79
2022-07-29T05:01:09.198Z,18.79
2022-07-29T05:03:35.895Z,18.87
2022-07-29T05:06:02.534Z,18.76
2022-07-29T05:08:29.241Z,18.69
2022-07-29T05:10:55.844Z,18.63
2022-07-29T05:13:22.522Z,18.72
2022-07-29T05:15:49.453Z,18.82
2022-07-29T05:18:16.555Z,18.86
2022-07-29T05:20:43.404Z,18.91
2022-07-29T05:23:10.239Z,18.96
2022-07-29T05:25:40.716Z,18.86
2022-07-29T05:28:10.762Z,18.74
2022-07-29T05:30:37.595Z,18.68
2022-07-29T05:33:04.463Z,18.68
2022-07-29T05:35:31.070Z,18.68
2022-07-29T05:37:57.712Z,18.71
2022-07-29T05:40:24.360Z,18.61
2022-07-29T05:42:50.990Z,18.66
2022-07-29T05:45:17.650Z,18.60
2022-07-29T05:47:44.390Z,18.45
2022-07-29T05:50:11.013Z,18.49
2022-07-29T05:52:37.684Z,18.62
2022-07-29T05:55:06.645Z,18.68
2022-07-29T05:57:33.637Z,18.85
2022-07-29T06:00:00.367Z,18.81
2022-07-29T06:02:27.353Z,18.76
2022-07-29T06:04:54.084Z,18.79
2022-07-29T06:07:20.977Z,18.86
2022-07-29T06:09:47.612Z,18.91
2022-07-29T06:12:14.285Z,18.88
2022-07-29T06:14:41.207Z,18.91
2022-07-29T06:17:08.050Z,18.95
2022-07-29T06:19:37.866Z,18.96
2022-07-29T06:22:05.162Z,19.01
2022-07-29T06:24:31.915Z,19.01
2022-07-29T06:26:58.580Z,19.09
2022-07-29T06:29:25.195Z,19.17
2022-07-29T06:31:51.810Z,19.14
2022-07-29T06:34:18.822Z,19.25
2022-07-29T06:36:45.989Z,19.33
2022-07-29T06:39:13.222Z,19.30
2022-07-29T06:41:39.969Z,19.28
2022-07-29T06:44:06.794Z,19.30
2022-07-29T06:46:33.850Z,19.37
2022-07-29T06:49:02.748Z,19.45
2022-07-29T06:51:29.666Z,19.41
2022-07-29T06:53:59.671Z,19.13
2022-07-29T06:56:38.537Z,18.87
2022-07-29T06:59:08.237Z,18.75
2022-07-29T07:01:35.278Z,18.75
2022-07-29T07:04:01.969Z,18.79
2022-07-29T07:06:28.752Z,18.82
2022-07-29T07:08:55.519Z,18.73
2022-07-29T07:11:22.189Z,18.73
2022-07-29T07:13:48.934Z,18.81
2022-07-29T07:16:16.091Z,18.90
2022-07-29T07:18:42.885Z,18.85
2022-07-29T07:21:09.695Z,18.78
2022-07-29T07:23:36.459Z,18.67
2022-07-29T07:26:04.119Z,18.67
2022-07-29T07:28:30.806Z,18.69
2022-07-29T07:30:57.562Z,18.78
2022-07-29T07:33:24.410Z,18.66
2022-07-29T07:35:51.171Z,18.59
2022-07-29T07:38:18.099Z,18.67
2022-07-29T07:40:44.813Z,18.68
2022-07-29T07:43:11.494Z,18.69
2022-07-29T07:45:38.647Z,18.82
2022-07-29T07:48:06.156Z,18.92
2022-07-29T07:50:32.963Z,19.01
2022-07-29T07:53:00.193Z,19.07
2022-07-29T07:55:27.038Z,19.13
2022-07-29T07:57:54.735Z,19.17
2022-07-29T08:00:23.750Z,19.21
2022-07-29T08:02:51.413Z,19.20
2022-07-29T08:05:19.206Z,19.22
2022-07-29T08:07:47.165Z,19.13
2022-07-29T08:10:16.015Z,19.05
2022-07-29T08:12:44.592Z,19.08
2022-07-29T08:15:11.448Z,19.05
2022-07-29T08:17:38.228Z,19.11
2022-07-29T08:20:05.432Z,19.17
2022-07-29T08:22:32.198Z,19.22
2022-07-29T08:24:58.890Z,19.29
2022-07-29T08:27:42.863Z,19.25
2022-07-29T08:30:11.486Z,19.27
2022-07-29T08:32:55.426Z,19.13
2022-07-29T08:35:24.526Z,19.13
2022-07-29T08:37:52.192Z,19.17
2022-07-29T08:40:19.691Z,19.26
2022-07-29T08:42:46.511Z,19.42
2022-07-29T08:45:13.440Z,19.45
2022-07-29T08:47:40.943Z,19.47
2022-07-29T08:50:09.008Z,19.62
2022-07-29T08:52:41.196Z,19.78
2022-07-29T08:55:09.647Z,19.86
2022-07-29T08:57:37.255Z,19.93
2022-07-29T09:00:11.440Z,19.90
2022-07-29T09:02:46.731Z,19.95
2022-07-29T09:05:16.972Z,20.01
2022-07-29T09:07:44.953Z,20.03
2022-07-29T09:10:11.875Z,20.08
2022-07-29T09:12:39.033Z,20.09
2022-07-29T09:15:06.160Z,20.01
2022-07-29T09:17:43.049Z,19.97
2022-07-29T09:20:14.659Z,19.90
2022-07-29T09:22:42.305Z,19.96
2022-07-29T09:25:09.989Z,20.00
2022-07-29T09:27:37.115Z,20.02
2022-07-29T09:30:11.580Z,19.97
2022-07-29T09:32:59.346Z,19.96
2022-07-29T09:35:27.569Z,19.92
2022-07-29T09:37:54.583Z,19.92
2022-07-29T09:40:23.711Z,19.90
2022-07-29T09:42:50.704Z,19.92
2022-07-29T09:45:34.745Z,19.92
2022-07-29T09:48:15.355Z,19.82
2022-07-29T09:50:43.408Z,19.85
2022-07-29T09:53:11.190Z,19.86
2022-07-29T09:55:51.722Z,19.88
2022-07-29T09:58:20.999Z,19.93
2022-07-29T10:00:48.864Z,19.57
2022-07-29T10:03:16.801Z,19.53
2022-07-29T10:05:44.308Z,19.60
2022-07-29T10:08:13.417Z,19.56
2022-07-29T10:10:43.280Z,19.64
2022-07-29T10:13:15.726Z,19.74
2022-07-29T10:15:46.167Z,19.88
2022-07-29T10:18:18.550Z,19.85
2022-07-29T10:20:45.512Z,19.93
2022-07-29T10:23:12.371Z,20.06
2022-07-29T10:25:39.096Z,20.23
2022-07-29T10:28:07.144Z,20.38
2022-07-29T10:30:34.026Z,20.51
2022-07-29T10:33:09.897Z,20.77
2022-07-29T10:36:17.547Z,20.91
2022-07-29T10:39:18.348Z,20.88
2022-07-29T10:42:33.629Z,21.16
2022-07-29T10:45:01.889Z,21.29
2022-07-29T10:47:28.585Z,21.29
2022-07-29T10:49:59.362Z,21.35
2022-07-29T10:52:46.828Z,21.91
2022-07-29T10:55:37.810Z,22.09
2022-07-29T10:58:19.445Z,22.18
2022-07-29T11:00:49.380Z,22.17
2022-07-29T11:03:52.239Z,22.16
2022-07-29T11:06:27.077Z,22.61
2022-07-29T11:09:25.744Z,23.05
2022-07-29T11:12:02.643Z,23.16
2022-07-29T11:15:00.265Z,23.35
2022-07-29T11:17:27.236Z,23.55
2022-07-29T11:20:42.948Z,23.59
2022-07-29T11:23:27.757Z,23.45
2022-07-29T11:26:23.211Z,23.46
2022-07-29T11:28:55.615Z,23.23
2022-07-29T11:31:45.282Z,23.28
2022-07-29T11:34:21.129Z,23.42
2022-07-29T11:37:12.493Z,23.18
2022-07-29T11:39:43.363Z,23.15
2022-07-29T11:42:28.297Z,23.24
2022-07-29T11:45:41.052Z,23.47
2022-07-29T11:47:58.667Z,23.37
2022-07-29T11:50:48.243Z,23.19
2022-07-29T11:53:15.479Z,23.47
2022-07-29T11:55:51.141Z,23.41
2022-07-29T11:58:25.015Z,23.19
2022-07-29T12:00:55.540Z,23.26
2022-07-29T12:03:34.217Z,22.95
2022-07-29T12:06:15.110Z,22.88
2022-07-29T12:08:46.088Z,22.83
2022-07-29T12:11:22.746Z,22.82
2022-07-29T12:13:51.741Z,22.70
2022-07-29T12:16:25.341Z,22.51
2022-07-29T12:19:04.046Z,22.50
2022-07-29T12:21:53.953Z,22.46
2022-07-29T12:24:26.897Z,22.44
2022-07-29T12:26:58.738Z,22.42
2022-07-29T12:29:33.963Z,22.39
2022-07-29T12:32:03.081Z,22.41
2022-07-29T12:34:30.565Z,22.43
2022-07-29T12:36:57.358Z,22.49
2022-07-29T12:39:27.486Z,22.48
2022-07-29T12:42:03.842Z,22.36
2022-07-29T12:44:48.049Z,22.29
2022-07-29T12:47:15.075Z,22.34
2022-07-29T12:49:42.292Z,22.46
2022-07-29T12:52:25.316Z,22.41
2022-07-29T12:54:52.689Z,22.49
2022-07-29T12:57:19.914Z,22.59
2022-07-29T13:00:00.481Z,22.66
2022-07-29T13:02:27.254Z,22.76
2022-07-29T13:04:59.425Z,22.63
2022-07-29T13:07:57.076Z,22.67
2022-07-29T13:10:24.164Z,22.73
2022-07-29T13:13:14.577Z,22.71
2022-07-29T13:15:43.384Z,22.62
2022-07-29T13:18:29.876Z,22.43
2022-07-29T13:20:57.073Z,22.35
2022-07-29T13:23:23.871Z,22.39
2022-07-29T13:25:50.542Z,22.49
2022-07-29T13:28:17.637Z,22.74
2022-07-29T13:30:44.935Z,23.04
2022-07-29T13:33:11.961Z,23.29
2022-07-29T13:35:39.905Z,23.21
2022-07-29T13:38:07.032Z,23.39
2022-07-29T13:40:36.411Z,23.53
2022-07-29T13:43:03.208Z,23.62
2022-07-29T13:45:30.877Z,23.88
2022-07-29T13:47:57.614Z,23.86
2022-07-29T13:50:24.420Z,23.65
2022-07-29T13:52:52.044Z,23.56
2022-07-29T13:55:18.817Z,23.56
2022-07-29T13:57:45.506Z,23.51
2022-07-29T14:00:13.313Z,23.58
2022-07-29T14:02:40.062Z,23.74
2022-07-29T14:05:08.634Z,23.74
2022-07-29T14:07:35.669Z,23.94
2022-07-29T14:10:02.474Z,23.86
2022-07-29T14:12:29.127Z,24.06
2022-07-29T14:14:55.932Z,24.14
2022-07-29T14:17:22.899Z,24.23
2022-07-29T14:19:49.738Z,24.19
2022-07-29T14:22:16.532Z,24.11
2022-07-29T14:24:43.229Z,24.05
2022-07-29T14:27:10.010Z,24.08
2022-07-29T14:29:38.477Z,23.97
2022-07-29T14:32:10.137Z,24.14
2022-07-29T14:34:38.058Z,24.23
2022-07-29T14:37:06.917Z,24.35
2022-07-29T14:39:36.096Z,24.41
2022-07-29T14:42:06.332Z,24.47
2022-07-29T14:44:33.078Z,24.69
2022-07-29T14:47:00.940Z,24.90
2022-07-29T14:49:34.605Z,25.00
2022-07-29T14:52:01.531Z,24.98
2022-07-29T14:54:28.398Z,24.89
2022-07-29T14:56:58.274Z,25.11
2022-07-29T14:59:25.821Z,25.18
2022-07-29T15:01:52.682Z,25.24
2022-07-29T15:04:19.479Z,25.34
2022-07-29T15:06:46.374Z,25.45
2022-07-29T15:09:13.253Z,25.03
2022-07-29T15:11:40.063Z,24.94
2022-07-29T15:14:07.248Z,24.94
2022-07-29T15:16:36.281Z,25.11
2022-07-29T15:19:03.086Z,25.19
2022-07-29T15:21:29.778Z,25.36
2022-07-29T15:23:56.555Z,25.36
2022-07-29T15:26:23.421Z,25.53
2022-07-29T15:28:50.248Z,25.42
2022-07-29T15:31:17.158Z,25.64
2022-07-29T15:33:43.865Z,25.81
2022-07-29T15:36:25.419Z,25.96
2022-07-29T15:38:59.730Z,25.93
2022-07-29T15:41:26.494Z,25.95
2022-07-29T15:43:53.312Z,26.11
2022-07-29T15:46:39.010Z,26.13
2022-07-29T15:49:07.442Z,26.13
2022-07-29T15:51:34.448Z,25.96
2022-07-29T15:54:04.799Z,25.93
2022-07-29T15:56:31.915Z,25.90
2022-07-29T15:58:58.794Z,25.70
2022-07-29T16:01:25.712Z,25.68
2022-07-29T16:03:52.652Z,25.56
2022-07-29T16:06:19.581Z,25.70
2022-07-29T16:08:46.469Z,25.84
2022-07-29T16:11:13.347Z,26.03
2022-07-29T16:13:40.148Z,25.78
2022-07-29T16:16:07.029Z,25.74
2022-07-29T16:18:34.853Z,25.57
2022-07-29T16:21:01.674Z,25.68
2022-07-29T16:23:28.531Z,25.73
2022-07-29T16:26:00.091Z,25.83
2022-07-29T16:28:28.719Z,25.90
2022-07-29T16:30:55.805Z,26.07
2022-07-29T16:33:23.663Z,26.05
2022-07-29T16:35:51.171Z,26.10
2022-07-29T16:38:18.031Z,26.18
2022-07-29T16:40:45.109Z,25.93
2022-07-29T16:43:16.274Z,25.96
2022-07-29T16:46:01.005Z,25.72
2022-07-29T16:48:27.826Z,25.89
2022-07-29T16:50:54.933Z,25.96
2022-07-29T16:53:21.875Z,26.02
2022-07-29T16:55:48.563Z,25.84
2022-07-29T16:58:53.497Z,25.84
2022-07-29T17:01:22.566Z,25.98
2022-07-29T17:04:16.149Z,25.93
2022-07-29T17:06:43.060Z,25.84
2022-07-29T17:09:11.627Z,25.95
2022-07-29T17:11:54.078Z,25.90
2022-07-29T17:14:25.546Z,25.67
2022-07-29T17:17:00.000Z,25.60
2022-07-29T17:19:32.734Z,25.62
2022-07-29T17:22:08.442Z,25.43
2022-07-29T17:24:37.251Z,25.41
2022-07-29T17:27:05.887Z,25.40
2022-07-29T17:29:32.654Z,25.48
2022-07-29T17:32:00.195Z,25.49
2022-07-29T17:34:27.069Z,25.46
2022-07-29T17:36:53.904Z,25.40
2022-07-29T17:39:20.635Z,25.28
2022-07-29T17:41:47.395Z,25.24
2022-07-29T17:44:14.195Z,25.20
2022-07-29T17:46:41.456Z,25.19
2022-07-29T17:49:08.262Z,25.10
2022-07-29T17:51:35.105Z,25.12
2022-07-29T17:54:01.764Z,25.11
2022-07-29T17:56:28.465Z,25.13
2022-07-29T17:58:55.306Z,25.11
2022-07-29T18:01:23.767Z,25.07
2022-07-29T18:03:50.563Z,24.99
2022-07-29T18:06:17.404Z,24.98
2022-07-29T18:08:47.577Z,24.84
2022-07-29T18:11:15.158Z,24.79
2022-07-29T18:13:42.352Z,24.70
2022-07-29T18:16:09.539Z,24.72
2022-07-29T18:18:36.367Z,24.78
2022-07-29T18:21:03.715Z,24.78
2022-07-29T18:23:30.643Z,24.74
2022-07-29T18:25:57.402Z,24.66
2022-07-29T18:28:24.062Z,24.68
2022-07-29T18:30:51.087Z,24.65
2022-07-29T18:33:21.629Z,24.60
2022-07-29T18:35:50.512Z,24.59
2022-07-29T18:38:17.454Z,24.56
2022-07-29T18:40:45.905Z,24.52
2022-07-29T18:43:13.239Z,24.53
2022-07-29T18:45:40.139Z,24.49
2022-07-29T18:48:12.896Z,24.47
2022-07-29T18:50:40.218Z,24.41
2022-07-29T18:53:08.317Z,24.31
2022-07-29T18:55:35.322Z,24.27
2022-07-29T18:58:02.128Z,24.25
2022-07-29T19:00:28.878Z,24.27
2022-07-29T19:02:56.287Z,24.21
2022-07-29T19:05:25.244Z,24.14
2022-07-29T19:07:52.146Z,24.05
2022-07-29T19:10:18.979Z,24.02
2022-07-29T19:12:45.852Z,23.93
2022-07-29T19:15:12.659Z,23.92
2022-07-29T19:17:46.911Z,23.90
2022-07-29T19:20:14.588Z,23.90
2022-07-29T19:22:41.487Z,23.95
2022-07-29T19:25:09.452Z,23.89
2022-07-29T19:27:36.115Z,23.85
2022-07-29T19:30:05.078Z,23.84
2022-07-29T19:32:31.762Z,23.80
2022-07-29T19:35:16.954Z,23.75
2022-07-29T19:37:43.842Z,23.72
2022-07-29T19:40:12.267Z,23.66
2022-07-29T19:42:41.165Z,23.62
2022-07-29T19:45:08.377Z,23.54
2022-07-29T19:47:35.157Z,23.49
2022-07-29T19:50:02.455Z,23.41
2022-07-29T19:52:29.186Z,23.35
2022-07-29T19:54:55.962Z,23.33
2022-07-29T19:57:22.896Z,23.32
2022-07-29T19:59:51.003Z,23.32
2022-07-29T20:02:17.853Z,23.26
2022-07-29T20:04:44.648Z,23.21
2022-07-29T20:07:11.653Z,23.24
2022-07-29T20:09:40.154Z,23.15
2022-07-29T20:12:12.891Z,23.11
2022-07-29T20:14:39.588Z,23.03
2022-07-29T20:17:06.809Z,23.01
2022-07-29T20:19:33.496Z,22.99
2022-07-29T20:22:00.667Z,22.91
2022-07-29T20:24:27.582Z,22.94
2022-07-29T20:26:54.452Z,22.92
2022-07-29T20:29:21.338Z,22.90
2022-07-29T20:31:53.492Z,22.88
2022-07-29T20:34:23.358Z,22.80
2022-07-29T20:36:50.083Z,22.76
2022-07-29T20:39:16.755Z,22.71
2022-07-29T20:41:43.481Z,22.71
2022-07-29T20:44:10.341Z,22.74
2022-07-29T20:46:37.210Z,22.81
2022-07-29T20:49:04.160Z,22.72
2022-07-29T20:51:31.195Z,22.61
2022-07-29T20:54:10.070Z,22.60
2022-07-29T20:56:36.856Z,22.56
2022-07-29T20:59:03.599Z,22.50
2022-07-29T21:01:30.678Z,22.56
2022-07-29T21:03:57.420Z,22.48
2022-07-29T21:06:24.081Z,22.44
2022-07-29T21:08:50.817Z,22.43
2022-07-29T21:11:17.816Z,22.39
2022-07-29T21:14:04.786Z,22.32
2022-07-29T21:16:33.496Z,22.27
2022-07-29T21:19:00.274Z,22.23
2022-07-29T21:21:27.044Z,22.22
2022-07-29T21:23:53.919Z,22.19
2022-07-29T21:26:20.610Z,22.13
2022-07-29T21:28:47.339Z,22.07
2022-07-29T21:31:17.371Z,22.11
2022-07-29T21:33:47.548Z,22.07
2022-07-29T21:36:46.404Z,22.02
2022-07-29T21:39:07.412Z,21.96
2022-07-29T21:41:35.537Z,22.00
2022-07-29T21:44:02.176Z,22.10
2022-07-29T21:46:28.940Z,22.08
2022-07-29T21:48:55.833Z,22.16
2022-07-29T21:51:22.635Z,22.18
2022-07-29T21:53:50.669Z,22.23
2022-07-29T21:56:20.091Z,22.11
2022-07-29T21:58:49.398Z,22.08
2022-07-29T22:01:16.168Z,22.00
2022-07-29T22:03:43.008Z,21.98
2022-07-29T22:06:11.363Z,21.98
2022-07-29T22:08:45.819Z,21.92
2022-07-29T22:11:13.085Z,21.78
2022-07-29T22:13:39.940Z,21.81
2022-07-29T22:16:06.990Z,21.87
2022-07-29T22:18:33.765Z,21.92
2022-07-29T22:21:00.458Z,21.89
2022-07-29T22:23:27.134Z,21.83
2022-07-29T22:25:53.930Z,21.90
2022-07-29T22:28:20.584Z,21.95
2022-07-29T22:30:47.357Z,21.91
2022-07-29T22:33:17.614Z,21.86
2022-07-29T22:35:44.882Z,21.81
2022-07-29T22:38:14.994Z,21.81
2022-07-29T22:40:41.722Z,21.90
2022-07-29T22:43:08.353Z,21.93
2022-07-29T22:45:35.051Z,21.88
2022-07-29T22:48:01.770Z,21.90
2022-07-29T22:50:30.025Z,21.86
2022-07-29T22:52:56.857Z,21.84
2022-07-29T22:55:23.537Z,21.80
2022-07-29T22:57:50.275Z,21.74
2022-07-29T23:00:17.017Z,21.77
2022-07-29T23:02:43.719Z,21.76
2022-07-29T23:05:15.918Z,21.76
2022-07-29T23:07:43.035Z,21.78
2022-07-29T23:10:10.271Z,21.76
2022-07-29T23:12:36.999Z,21.68
2022-07-29T23:15:05.416Z,21.62
2022-07-29T23:17:36.160Z,21.61
2022-07-29T23:20:07.809Z,21.60
2022-07-29T23:22:35.919Z,21.63
2022-07-29T23:25:02.713Z,21.48
2022-07-29T23:27:29.390Z,21.52
2022-07-29T23:29:56.191Z,21.49
2022-07-29T23:32:22.835Z,21.51
2022-07-29T23:34:49.524Z,21.49
2022-07-29T23:37:16.181Z,21.56
2022-07-29T23:39:42.866Z,21.49
2022-07-29T23:42:09.689Z,21.43
2022-07-29T23:44:36.351Z,21.28
2022-07-29T23:47:03.385Z,21.25
2022-07-29T23:49:30.493Z,21.21
2022-07-29T23:51:57.332Z,21.18
2022-07-29T23:54:24.016Z,21.14
2022-07-29T23:56:50.779Z,21.15
2022-07-29T23:59:17.538Z,21.05
